| time (UTC) | temp F | wind direction | speed MPH | gust MPH | rain 1hr in | rain 24hr in | rain mn in | humidity % | barometer mb |
| 20260507140016 | 48 | 329 | 4.0 | 11.0 | 0.00 | 0.01 | 0.00 | 58 | 1012.7 |
| 20260507135016 | 48 | 313 | 4.0 | 9.0 | 0.00 | 0.01 | 0.00 | 59 | 1012.6 |
| 20260507134036 | 47 | 311 | 3.0 | 8.0 | 0.00 | 0.02 | 0.00 | 59 | 1012.6 |
| 20260507133016 | 47 | 322 | 3.0 | 6.0 | 0.00 | 0.03 | 0.00 | 60 | 1012.6 |
| 20260507132016 | 47 | 324 | 2.0 | 10.0 | 0.00 | 0.05 | 0.00 | 58 | 1012.6 |
| 20260507131016 | 46 | 302 | 4.0 | 11.0 | 0.00 | 0.08 | 0.00 | 61 | 1012.8 |
| 20260507130016 | 46 | 299 | 3.0 | 7.0 | 0.00 | 0.10 | 0.00 | 62 | 1012.8 |
| 20260507125016 | 46 | 321 | 5.0 | 9.0 | 0.00 | 0.10 | 0.00 | 63 | 1012.8 |
| 20260507124016 | 45 | 336 | 2.0 | 5.0 | 0.00 | 0.12 | 0.00 | 69 | 1012.6 |
| 20260507123016 | 44 | 334 | 2.0 | 6.0 | 0.00 | 0.14 | 0.00 | 71 | 1012.6 |
| 20260507122016 | 44 | 332 | 2.0 | 7.0 | 0.00 | 0.16 | 0.00 | 70 | 1012.5 |
| 20260507121016 | 44 | 277 | 2.0 | 8.0 | 0.00 | 0.17 | 0.00 | 73 | 1012.5 |
| 20260507120036 | 44 | 280 | 2.0 | 5.0 | 0.00 | 0.18 | 0.00 | 78 | 1012.5 |
| 20260507115016 | 43 | 279 | 2.0 | 5.0 | 0.00 | 0.18 | 0.00 | 81 | 1012.4 |
| 20260507114016 | 42 | 304 | 1.0 | 4.0 | 0.00 | 0.19 | 0.00 | 83 | 1012.4 |
| 20260507113037 | 41 | 290 | 0.0 | 2.0 | 0.00 | 0.20 | 0.00 | 84 | 1012.4 |
| 20260507112016 | 40 | 237 | 0.0 | 3.0 | 0.00 | 0.21 | 0.00 | 86 | 1012.3 |
| 20260507111016 | 40 | 132 | 0.0 | 1.0 | 0.00 | 0.23 | 0.00 | 89 | 1012.2 |
| 20260507110016 | 39 | 0.0 | 1.0 | 0.00 | 0.25 | 0.00 | 93 | 1011.9 | |
| 20260507105016 | 39 | 0.0 | 0.0 | 0.00 | 0.27 | 0.00 | 96 | 1012.1 | |
| 20260507104016 | 37 | 0.0 | 0.0 | 0.00 | 0.28 | 0.00 | 96 | 1012.1 | |
| 20260507103057 | 34 | 0.0 | 0.0 | 0.00 | 0.29 | 0.00 | 94 | 1011.9 | |
| 20260507102016 | 34 | 0.0 | 0.0 | 0.00 | 0.30 | 0.00 | 93 | 1011.7 | |
| 20260507101016 | 34 | 0.0 | 0.0 | 0.00 | 0.30 | 0.00 | 93 | 1011.8 | |
| 20260507100036 | 35 | 0.0 | 0.0 | 0.00 | 0.31 | 0.00 | 92 | 1011.7 | |
| 20260507095016 | 35 | 0.0 | 0.0 | 0.00 | 0.31 | 0.00 | 90 | 1011.8 | |
| 20260507094016 | 36 | 0.0 | 0.0 | 0.00 | 0.32 | 0.00 | 89 | 1011.7 | |
| 20260507093036 | 37 | 0.0 | 2.0 | 0.00 | 0.33 | 0.00 | 88 | 1011.6 | |
| 20260507092016 | 37 | 0.0 | 0.0 | 0.00 | 0.34 | 0.00 | 87 | 1011.8 | |
| 20260507091016 | 38 | 0.0 | 0.0 | 0.00 | 0.34 | 0.00 | 86 | 1011.9 | |
| 20260507090016 | 38 | 225 | 0.0 | 1.0 | 0.00 | 0.34 | 0.00 | 84 | 1011.9 |
| 20260507085017 | 39 | 257 | 0.0 | 3.0 | 0.00 | 0.35 | 0.00 | 81 | 1011.9 |
| 20260507084016 | 39 | 0.0 | 0.0 | 0.00 | 0.36 | 0.00 | 79 | 1011.9 | |
| 20260507083016 | 40 | 288 | 0.0 | 2.0 | 0.00 | 0.36 | 0.00 | 78 | 1012.0 |
| 20260507082016 | 40 | 311 | 1.0 | 2.0 | 0.00 | 0.37 | 0.00 | 77 | 1012.0 |
| 20260507081016 | 41 | 308 | 0.0 | 5.0 | 0.00 | 0.37 | 0.00 | 77 | 1011.9 |
| 20260507080016 | 41 | 303 | 2.0 | 6.0 | 0.00 | 0.38 | 0.00 | 77 | 1011.9 |
| 20260507075016 | 41 | 309 | 1.0 | 3.0 | 0.00 | 0.39 | 0.00 | 77 | 1011.9 |
| 20260507074016 | 42 | 304 | 1.0 | 3.0 | 0.00 | 0.39 | 0.00 | 78 | 1011.8 |
| 20260507073016 | 42 | 290 | 1.0 | 6.0 | 0.00 | 0.39 | 0.00 | 78 | 1011.6 |
| 20260507072016 | 42 | 316 | 0.0 | 3.0 | 0.00 | 0.39 | 0.00 | 77 | 1011.6 |
| 20260507071017 | 42 | 298 | 1.0 | 5.0 | 0.00 | 0.39 | 0.00 | 78 | 1011.6 |
| 20260507070056 | 42 | 312 | 1.0 | 2.0 | 0.00 | 0.39 | 0.00 | 80 | 1011.7 |
| 20260507065016 | 43 | 303 | 2.0 | 4.0 | 0.00 | 0.39 | 0.00 | 80 | 1011.7 |
| 20260507064016 | 43 | 310 | 1.0 | 5.0 | 0.00 | 0.39 | 0.00 | 82 | 1011.8 |
| 20260507063056 | 43 | 336 | 2.0 | 6.0 | 0.00 | 0.39 | 0.00 | 82 | 1011.8 |
| 20260507062016 | 43 | 315 | 3.0 | 8.0 | 0.00 | 0.40 | 0.00 | 83 | 1011.8 |
| 20260507061016 | 43 | 317 | 5.0 | 12.0 | 0.00 | 0.40 | 0.00 | 84 | 1011.9 |
| 20260507060017 | 43 | 306 | 3.0 | 7.0 | 0.00 | 0.40 | 0.00 | 87 | 1012.0 |
| 20260507055016 | 43 | 306 | 3.0 | 9.0 | 0.00 | 0.40 | 0.00 | 87 | 1012.0 |
| 20260507054017 | 44 | 304 | 3.0 | 8.0 | 0.00 | 0.40 | 0.00 | 89 | 1012.1 |
| 20260507053036 | 44 | 298 | 2.0 | 9.0 | 0.00 | 0.40 | 0.00 | 90 | 1012.0 |
| 20260507052016 | 44 | 319 | 2.0 | 7.0 | 0.00 | 0.40 | 0.00 | 91 | 1012.0 |
| 20260507051036 | 44 | 316 | 2.0 | 6.0 | 0.00 | 0.40 | 0.00 | 92 | 1012.0 |
| 20260507050016 | 44 | 310 | 2.0 | 5.0 | 0.00 | 0.40 | 0.00 | 93 | 1011.8 |
| 20260507045017 | 44 | 322 | 2.0 | 6.0 | 0.00 | 0.40 | 0.00 | 93 | 1011.8 |
| 20260507044017 | 44 | 325 | 2.0 | 9.0 | 0.00 | 0.40 | 0.00 | 94 | 1011.8 |
| 20260507043016 | 45 | 326 | 3.0 | 5.0 | 0.00 | 0.40 | 0.00 | 94 | 1011.7 |
| 20260507042016 | 45 | 317 | 1.0 | 7.0 | 0.00 | 0.40 | 0.00 | 95 | 1011.5 |
| 20260507041016 | 45 | 336 | 2.0 | 5.0 | 0.00 | 0.40 | 0.00 | 95 | 1011.3 |
| 20260507040016 | 45 | 317 | 2.0 | 4.0 | 0.00 | 0.41 | 0.00 | 96 | 1011.2 |
| 20260507035056 | 45 | 321 | 1.0 | 2.0 | 0.00 | 0.41 | 0.41 | 96 | 1011.2 |
| 20260507034057 | 45 | 316 | 1.0 | 4.0 | 0.00 | 0.42 | 0.41 | 96 | 1011.2 |
| 20260507033016 | 45 | 331 | 1.0 | 3.0 | 0.00 | 0.42 | 0.41 | 97 | 1011.3 |
| 20260507032016 | 45 | 296 | 0.0 | 1.0 | 0.00 | 0.43 | 0.41 | 97 | 1011.3 |
| 20260507031016 | 45 | 0.0 | 0.0 | 0.00 | 0.44 | 0.41 | 97 | 1011.1 | |
| 20260507030016 | 45 | 0.0 | 0.0 | 0.00 | 0.45 | 0.41 | 97 | 1011.2 | |
| 20260507025036 | 45 | 0.0 | 0.0 | 0.00 | 0.46 | 0.41 | 97 | 1011.1 | |
| 20260507024016 | 45 | 0.0 | 0.0 | 0.00 | 0.46 | 0.41 | 97 | 1011.3 | |
| 20260507023017 | 45 | 0.0 | 0.0 | 0.00 | 0.48 | 0.41 | 97 | 1011.2 | |
| 20260507022017 | 45 | 0.0 | 0.0 | 0.00 | 0.50 | 0.41 | 96 | 1011.2 | |
| 20260507021017 | 45 | 0.0 | 0.0 | 0.00 | 0.53 | 0.41 | 96 | 1011.3 | |
| 20260507020016 | 45 | 0.0 | 0.0 | 0.00 | 0.54 | 0.41 | 96 | 1011.3 | |
| 20260507015016 | 45 | 0.0 | 0.0 | 0.00 | 0.54 | 0.41 | 96 | 1011.3 | |
| 20260507014016 | 45 | 0.0 | 0.0 | 0.00 | 0.55 | 0.41 | 95 | 1011.2 | |
| 20260507013017 | 45 | 0.0 | 0.0 | 0.00 | 0.55 | 0.41 | 95 | 1011.1 | |
| 20260507012016 | 45 | 0.0 | 0.0 | 0.00 | 0.56 | 0.41 | 95 | 1011.3 | |
| 20260507011017 | 45 | 0.0 | 0.0 | 0.00 | 0.59 | 0.41 | 94 | 1011.1 | |
| 20260507010016 | 45 | 0.0 | 0.0 | 0.00 | 0.59 | 0.41 | 94 | 1011.2 | |
| 20260507005036 | 46 | 0.0 | 0.0 | 0.00 | 0.59 | 0.41 | 94 | 1011.1 | |
| 20260507004036 | 46 | 0.0 | 0.0 | 0.00 | 0.59 | 0.41 | 93 | 1010.9 | |
| 20260507003016 | 46 | 0.0 | 2.0 | 0.00 | 0.59 | 0.41 | 93 | 1010.9 | |
| 20260507002016 | 46 | 313 | 1.0 | 3.0 | 0.00 | 0.59 | 0.41 | 93 | 1010.8 |
| 20260507001037 | 46 | 286 | 1.0 | 3.0 | 0.00 | 0.59 | 0.41 | 93 | 1010.7 |
| 20260507000017 | 46 | 312 | 1.0 | 3.0 | 0.00 | 0.59 | 0.41 | 92 | 1010.7 |
| 20260506235016 | 46 | 289 | 1.0 | 4.0 | 0.00 | 0.59 | 0.41 | 93 | 1010.2 |
| 20260506234037 | 46 | 301 | 1.0 | 3.0 | 0.00 | 0.59 | 0.41 | 94 | 1010.3 |
| 20260506233017 | 46 | 318 | 0.0 | 2.0 | 0.00 | 0.59 | 0.41 | 94 | 1009.9 |
| 20260506232017 | 46 | 0.0 | 0.0 | 0.00 | 0.59 | 0.41 | 93 | 1009.4 | |
| 20260506231016 | 46 | 0.0 | 0.0 | 0.00 | 0.59 | 0.41 | 93 | 1009.6 | |
| 20260506230017 | 46 | 302 | 0.0 | 1.0 | 0.00 | 0.59 | 0.41 | 93 | 1009.5 |
| 20260506225016 | 46 | 339 | 1.0 | 4.0 | 0.00 | 0.59 | 0.41 | 93 | 1009.8 |
| 20260506224036 | 46 | 335 | 2.0 | 4.0 | 0.00 | 0.59 | 0.41 | 93 | 1009.8 |
| 20260506223016 | 47 | 322 | 2.0 | 5.0 | 0.00 | 0.59 | 0.41 | 93 | 1009.9 |
| 20260506222016 | 47 | 325 | 1.0 | 5.0 | 0.00 | 0.59 | 0.41 | 94 | 1010.1 |
| 20260506221016 | 46 | 334 | 1.0 | 8.0 | 0.00 | 0.59 | 0.41 | 94 | 1009.9 |
| 20260506220037 | 46 | 317 | 2.0 | 6.0 | 0.00 | 0.59 | 0.41 | 95 | 1009.8 |
| 20260506215016 | 46 | 309 | 2.0 | 5.0 | 0.00 | 0.59 | 0.41 | 96 | 1009.6 |
| 20260506214036 | 46 | 340 | 3.0 | 6.0 | 0.00 | 0.59 | 0.41 | 96 | 1009.6 |
| 20260506213036 | 46 | 310 | 3.0 | 6.0 | 0.00 | 0.59 | 0.41 | 97 | 1009.5 |
| 20260506212016 | 46 | 306 | 1.0 | 8.0 | 0.00 | 0.62 | 0.41 | 97 | 1009.4 |
| 20260506211016 | 46 | 326 | 3.0 | 8.0 | 0.00 | 0.63 | 0.41 | 98 | 1009.5 |
| 20260506210017 | 46 | 328 | 3.0 | 8.0 | 0.00 | 0.64 | 0.41 | 98 | 1009.2 |
| 20260506205037 | 46 | 328 | 3.0 | 7.0 | 0.00 | 0.67 | 0.41 | 99 | 1009.1 |
| 20260506204037 | 46 | 332 | 2.0 | 11.0 | 0.00 | 0.67 | 0.41 | 99 | 1008.9 |
| 20260506203016 | 46 | 333 | 2.0 | 5.0 | 0.00 | 0.67 | 0.41 | 99 | 1008.8 |
| 20260506202016 | 46 | 335 | 2.0 | 5.0 | 0.00 | 0.67 | 0.41 | 99 | 1008.7 |
| 20260506201017 | 45 | 312 | 4.0 | 8.0 | 0.00 | 0.67 | 0.41 | 99 | 1008.6 |
| 20260506200016 | 46 | 326 | 3.0 | 7.0 | 0.00 | 0.67 | 0.41 | 99 | 1008.8 |
| 20260506195016 | 46 | 318 | 2.0 | 7.0 | 0.00 | 0.67 | 0.41 | 99 | 1008.8 |
| 20260506194016 | 46 | 310 | 3.0 | 8.0 | 0.00 | 0.67 | 0.41 | 99 | 1008.8 |
| 20260506193016 | 46 | 311 | 3.0 | 7.0 | 0.00 | 0.67 | 0.41 | 99 | 1008.6 |
| 20260506192036 | 46 | 319 | 2.0 | 7.0 | 0.00 | 0.67 | 0.41 | 99 | 1008.5 |
| 20260506191036 | 46 | 318 | 2.0 | 5.0 | 0.00 | 0.67 | 0.41 | 99 | 1008.3 |
| 20260506190017 | 46 | 329 | 2.0 | 6.0 | 0.00 | 0.67 | 0.41 | 99 | 1008.5 |
| 20260506185036 | 46 | 337 | 2.0 | 9.0 | 0.00 | 0.67 | 0.41 | 98 | 1008.3 |
| 20260506184017 | 46 | 325 | 3.0 | 9.0 | 0.00 | 0.67 | 0.41 | 98 | 1008.2 |
| 20260506183036 | 46 | 315 | 3.0 | 8.0 | 0.00 | 0.69 | 0.41 | 97 | 1008.0 |
| 20260506182016 | 47 | 340 | 2.0 | 6.0 | 0.00 | 0.69 | 0.41 | 97 | 1007.9 |
| 20260506181016 | 47 | 317 | 2.0 | 4.0 | 0.00 | 0.70 | 0.41 | 98 | 1007.7 |
| 20260506180017 | 47 | 335 | 1.0 | 3.0 | 0.00 | 0.70 | 0.41 | 98 | 1007.6 |
| 20260506175016 | 47 | 333 | 1.0 | 3.0 | 0.00 | 0.70 | 0.41 | 98 | 1007.6 |
| 20260506174017 | 47 | 314 | 1.0 | 4.0 | 0.00 | 0.70 | 0.41 | 98 | 1007.6 |
| 20260506173037 | 47 | 334 | 1.0 | 2.0 | 0.00 | 0.70 | 0.41 | 98 | 1007.5 |
| 20260506172016 | 47 | 318 | 0.0 | 3.0 | 0.00 | 0.71 | 0.41 | 98 | 1007.4 |
| 20260506171017 | 47 | 333 | 1.0 | 4.0 | 0.00 | 0.71 | 0.41 | 98 | 1007.4 |
| 20260506170016 | 46 | 312 | 0.0 | 2.0 | 0.00 | 0.71 | 0.41 | 98 | 1007.4 |
| 20260506165017 | 46 | 319 | 0.0 | 2.0 | 0.00 | 0.71 | 0.41 | 98 | 1007.5 |
| 20260506164016 | 46 | 324 | 1.0 | 4.0 | 0.00 | 0.71 | 0.41 | 98 | 1007.6 |
| 20260506163017 | 46 | 311 | 0.0 | 1.0 | 0.00 | 0.71 | 0.41 | 98 | 1007.5 |
| 20260506162017 | 46 | 336 | 0.0 | 3.0 | 0.00 | 0.71 | 0.41 | 98 | 1007.6 |
| 20260506161016 | 46 | 326 | 1.0 | 4.0 | 0.00 | 0.71 | 0.41 | 98 | 1007.8 |
| 20260506160017 | 46 | 0.0 | 2.0 | 0.00 | 0.71 | 0.41 | 98 | 1007.7 | |
| 20260506155016 | 46 | 307 | 0.0 | 1.0 | 0.00 | 0.71 | 0.41 | 98 | 1007.8 |
| 20260506154016 | 45 | 314 | 1.0 | 2.0 | 0.00 | 0.71 | 0.41 | 98 | 1008.0 |
| 20260506153017 | 45 | 0.0 | 0.0 | 0.00 | 0.71 | 0.41 | 98 | 1007.6 | |
| 20260506152016 | 45 | 344 | 0.0 | 3.0 | 0.00 | 0.71 | 0.41 | 98 | 1007.8 |
| 20260506151017 | 45 | 106 | 0.0 | 1.0 | 0.01 | 0.71 | 0.41 | 98 | 1007.4 |
| 20260506150037 | 45 | 82 | 0.0 | 2.0 | 0.01 | 0.71 | 0.41 | 98 | 1007.2 |
| 20260506145036 | 45 | 138 | 0.0 | 3.0 | 0.01 | 0.71 | 0.41 | 98 | 1007.2 |
| 20260506144016 | 45 | 115 | 0.0 | 3.0 | 0.02 | 0.71 | 0.41 | 98 | 1007.4 |
| 20260506143017 | 45 | 70 | 0.0 | 3.0 | 0.03 | 0.71 | 0.41 | 98 | 1007.4 |
| 20260506142036 | 45 | 129 | 0.0 | 2.0 | 0.05 | 0.71 | 0.41 | 98 | 1007.5 |
| 20260506141017 | 45 | 87 | 0.0 | 1.0 | 0.07 | 0.70 | 0.40 | 98 | 1007.5 |